Time;durP1;ratioP1;P1;durP2;ratioP2;P2;SDS_P1;SDS_P2;PMS_P1;PMS_P2;Temp;Humidity;BMP_temperature;BMP_pressure;BME280_temperature;BME280_humidity;BME280_pressure;Samples;Min_cycle;Max_cycle;Signal;HPM_P1;HPM_P2
2023/12/26 00:00:19;;;;;;;12.20;4.70;;;;;;;2.12;72.60;100526.48;107606;1251;97834;-64
2023/12/26 00:03:08;;;;;;;9.80;4.60;;;;;;;2.17;72.78;100532.21;107554;1251;97914;-64
2023/12/26 00:05:39;;;;;;;11.50;5.00;;;;;;;2.24;73.38;100528.48;107630;1255;111569;-64
2023/12/26 00:08:08;;;;;;;5.80;3.50;;;;;;;2.33;74.49;100530.58;107562;1255;108591;-64
2023/12/26 00:10:36;;;;;;;5.90;3.70;;;;;;;2.52;75.42;100532.73;107617;1253;107357;-64
2023/12/26 00:13:05;;;;;;;11.20;4.40;;;;;;;2.66;75.59;100532.04;107607;1253;97711;-64
2023/12/26 00:15:34;;;;;;;5.80;3.10;;;;;;;2.80;75.16;100536.54;107591;1252;98395;-64
2023/12/26 00:18:03;;;;;;;6.40;3.60;;;;;;;2.91;75.67;100539.10;107586;1254;110746;-65
2023/12/26 00:20:31;;;;;;;5.60;3.50;;;;;;;2.95;74.99;100546.27;107608;1252;107608;-64
2023/12/26 00:23:00;;;;;;;6.30;3.30;;;;;;;2.96;74.83;100549.77;107578;1254;106220;-66
2023/12/26 00:25:29;;;;;;;5.50;3.20;;;;;;;2.97;74.58;100554.11;107604;1254;97817;-64
2023/12/26 00:27:57;;;;;;;5.40;3.00;;;;;;;2.97;74.41;100562.79;107560;1254;97880;-63
2023/12/26 00:30:26;;;;;;;7.00;3.60;;;;;;;2.97;74.26;100567.42;107592;1251;111288;-64
2023/12/26 00:32:54;;;;;;;6.80;4.10;;;;;;;2.98;74.42;100573.55;107673;1251;107089;-64
2023/12/26 00:35:24;;;;;;;5.00;3.40;;;;;;;3.01;74.43;100582.41;107657;1251;108318;-64
2023/12/26 00:37:53;;;;;;;6.20;2.90;;;;;;;3.01;74.27;100588.45;107576;1257;97853;-64
2023/12/26 00:40:21;;;;;;;5.30;3.30;;;;;;;3.02;74.08;100592.63;107634;1251;99552;-65
2023/12/26 00:42:49;;;;;;;7.90;3.50;;;;;;;3.02;74.04;100591.05;107625;1251;111312;-64
2023/12/26 00:45:18;;;;;;;6.40;3.30;;;;;;;3.04;73.84;100596.40;107565;1251;109771;-64
2023/12/26 00:47:46;;;;;;;5.30;3.60;;;;;;;3.08;74.18;100600.27;107614;1251;106667;-64
2023/12/26 00:50:16;;;;;;;5.80;2.90;;;;;;;3.11;73.91;100609.48;107552;1250;97826;-63
2023/12/26 00:52:45;;;;;;;6.30;3.20;;;;;;;3.14;73.84;100607.15;107639;1251;97729;-68
2023/12/26 00:55:13;;;;;;;10.00;3.40;;;;;;;3.20;73.93;100608.92;107624;1251;110850;-64
2023/12/26 00:57:42;;;;;;;3.60;2.70;;;;;;;3.23;73.87;100613.70;107590;1251;109285;-64
2023/12/26 01:00:11;;;;;;;6.40;3.50;;;;;;;3.26;73.86;100608.55;107575;1254;108571;-64
2023/12/26 01:02:39;;;;;;;6.10;3.80;;;;;;;3.24;73.51;100611.49;107573;1254;97970;-63
2023/12/26 01:05:08;;;;;;;6.50;3.50;;;;;;;3.20;73.34;100609.27;107575;1255;98376;-65
2023/12/26 01:07:36;;;;;;;6.10;4.10;;;;;;;3.16;73.00;100608.44;107596;1254;111223;-64
2023/12/26 01:10:05;;;;;;;6.40;3.50;;;;;;;3.13;73.07;100605.41;107644;1254;108327;-68
2023/12/26 01:12:34;;;;;;;8.40;3.30;;;;;;;3.08;73.00;100606.25;107567;1254;108295;-68
2023/12/26 01:15:03;;;;;;;8.20;3.20;;;;;;;3.01;72.84;100602.45;107583;1253;97835;-68
2023/12/26 01:17:31;;;;;;;4.60;2.70;;;;;;;2.94;72.96;100600.86;107609;1251;98509;-67
2023/12/26 01:20:00;;;;;;;6.10;3.20;;;;;;;2.90;73.02;100604.35;107636;1251;112046;-68
2023/12/26 01:22:29;;;;;;;7.60;3.70;;;;;;;2.86;73.00;100605.29;107563;1254;108343;-67
2023/12/26 01:24:58;;;;;;;4.20;2.80;;;;;;;2.80;73.04;100600.67;107620;1251;108187;-67
2023/12/26 01:27:27;;;;;;;4.90;3.40;;;;;;;2.73;73.02;100603.54;107537;1253;97821;-68
2023/12/26 01:29:55;;;;;;;6.40;3.30;;;;;;;2.68;72.99;100605.95;107633;1254;98373;-67
2023/12/26 01:32:24;;;;;;;5.10;3.10;;;;;;;2.64;73.22;100609.02;107669;1251;111648;-67
2023/12/26 01:34:53;;;;;;;5.20;3.20;;;;;;;2.60;73.14;100610.80;107593;1251;107579;-69
2023/12/26 01:37:21;;;;;;;5.70;3.40;;;;;;;2.56;73.25;100611.27;107574;1255;107476;-68
2023/12/26 01:39:50;;;;;;;5.90;3.90;;;;;;;2.50;73.14;100617.45;107559;1250;98296;-65
2023/12/26 01:42:18;;;;;;;7.50;3.90;;;;;;;2.44;73.15;100617.40;107613;1251;97760;-65
2023/12/26 01:44:47;;;;;;;7.80;3.60;;;;;;;2.41;73.39;100615.85;107624;1253;111739;-67
2023/12/26 01:47:17;;;;;;;7.60;3.40;;;;;;;2.36;73.14;100621.21;107623;1254;107398;-66
2023/12/26 01:49:45;;;;;;;4.80;3.00;;;;;;;2.32;73.13;100626.77;107631;1251;106939;-68
2023/12/26 01:52:19;;;;;;;6.70;2.60;;;;;;;2.27;73.28;100626.85;107572;1256;98072;-68
2023/12/26 01:54:47;;;;;;;6.90;3.80;;;;;;;2.24;73.15;100622.27;107533;1254;97844;-66
2023/12/26 01:57:16;;;;;;;6.60;3.70;;;;;;;2.23;73.25;100624.45;107627;1252;111428;-65
2023/12/26 01:59:44;;;;;;;4.40;2.80;;;;;;;2.22;73.40;100623.59;107625;1251;108400;-63
2023/12/26 02:02:14;;;;;;;5.00;2.70;;;;;;;2.22;73.66;100622.71;107562;1251;106626;-65
2023/12/26 02:04:43;;;;;;;4.60;2.90;;;;;;;2.22;73.83;100625.04;107541;1251;97828;-65
2023/12/26 02:07:11;;;;;;;7.30;2.50;;;;;;;2.23;73.97;100623.00;107549;1251;98362;-65
2023/12/26 02:09:40;;;;;;;4.00;2.80;;;;;;;2.27;74.34;100621.05;107640;1251;111455;-66
2023/12/26 02:12:08;;;;;;;4.90;2.40;;;;;;;2.31;74.67;100621.34;107571;1251;107757;-68
2023/12/26 02:14:37;;;;;;;3.10;2.10;;;;;;;2.35;74.89;100623.92;107586;1252;107275;-67
2023/12/26 02:17:10;;;;;;;5.70;3.00;;;;;;;2.41;75.13;100620.27;107606;1253;97811;-68
2023/12/26 02:19:42;;;;;;;5.20;3.10;;;;;;;2.47;74.96;100622.02;107616;1254;98481;-68
2023/12/26 02:22:11;;;;;;;8.30;2.50;;;;;;;2.52;74.65;100625.12;107628;1254;112360;-68
2023/12/26 02:24:42;;;;;;;3.00;2.30;;;;;;;2.55;74.80;100624.21;107569;1255;110034;-65
2023/12/26 02:27:24;;;;;;;8.30;3.20;;;;;;;2.58;74.73;100627.79;107578;1254;107281;-67
2023/12/26 02:29:54;;;;;;;6.80;3.50;;;;;;;2.63;75.72;100629.23;107558;1254;97848;-66
2023/12/26 02:32:25;;;;;;;5.10;3.40;;;;;;;2.76;75.67;100638.23;107537;1251;98356;-64
2023/12/26 02:34:55;;;;;;;5.90;2.70;;;;;;;2.79;75.16;100642.70;107601;1251;109770;-64
2023/12/26 02:37:25;;;;;;;6.10;3.00;;;;;;;2.74;74.90;100641.02;107627;1255;108620;-64
2023/12/26 02:39:53;;;;;;;5.50;2.70;;;;;;;2.65;74.47;100639.23;107584;1254;108170;-64
2023/12/26 02:42:24;;;;;;;6.30;2.90;;;;;;;2.58;74.20;100642.63;107496;1256;97864;-65
2023/12/26 02:44:53;;;;;;;3.80;2.60;;;;;;;2.49;73.88;100645.30;107626;1251;97815;-65
2023/12/26 02:47:21;;;;;;;5.10;2.60;;;;;;;2.37;74.34;100649.47;107560;1256;112657;-67
2023/12/26 02:49:50;;;;;;;12.10;3.20;;;;;;;2.34;74.37;100657.62;107612;1251;108574;-67
2023/12/26 02:52:19;;;;;;;7.10;2.80;;;;;;;2.33;74.80;100666.00;107582;1253;108063;-68
2023/12/26 02:54:48;;;;;;;5.60;3.30;;;;;;;2.32;74.64;100663.36;107520;1254;97896;-68
2023/12/26 02:57:16;;;;;;;8.70;3.40;;;;;;;2.32;74.54;100658.07;107567;1253;97745;-68
2023/12/26 02:59:45;;;;;;;6.80;3.20;;;;;;;2.30;74.61;100668.28;107610;1253;110302;-68
2023/12/26 03:02:13;;;;;;;5.90;3.40;;;;;;;2.27;74.31;100669.68;107629;1251;108408;-68
2023/12/26 03:04:42;;;;;;;5.20;2.70;;;;;;;2.23;74.31;100670.83;107593;1254;108377;-67
2023/12/26 03:07:10;;;;;;;9.00;3.30;;;;;;;2.18;74.24;100671.96;107643;1254;97831;-67
2023/12/26 03:09:39;;;;;;;4.20;2.90;;;;;;;2.14;74.22;100678.52;107534;1254;98347;-67
2023/12/26 03:12:07;;;;;;;5.40;2.90;;;;;;;2.10;74.36;100681.41;107576;1251;111796;-68
2023/12/26 03:14:36;;;;;;;6.70;3.10;;;;;;;2.08;74.39;100685.42;107597;1251;107807;-68
2023/12/26 03:17:05;;;;;;;6.20;3.20;;;;;;;2.05;74.16;100683.60;107580;1251;108082;-68
2023/12/26 03:19:33;;;;;;;3.70;2.90;;;;;;;2.02;74.22;100677.06;107603;1251;97906;-67
2023/12/26 03:22:04;;;;;;;5.20;3.10;;;;;;;2.00;74.37;100686.58;107565;1252;97833;-65
2023/12/26 03:24:33;;;;;;;6.70;3.20;;;;;;;1.98;74.42;100693.40;107592;1256;111920;-65
2023/12/26 03:27:01;;;;;;;3.30;2.50;;;;;;;1.95;74.52;100702.02;107585;1251;107702;-67
2023/12/26 03:29:29;;;;;;;5.70;2.80;;;;;;;1.91;74.25;100705.63;107538;1251;107201;-66
2023/12/26 03:31:58;;;;;;;6.30;2.80;;;;;;;1.87;74.33;100703.34;107561;1251;98469;-66
2023/12/26 03:34:26;;;;;;;8.30;2.70;;;;;;;1.86;74.35;100707.65;107591;1251;98420;-65
2023/12/26 03:36:55;;;;;;;4.60;2.50;;;;;;;1.85;74.47;100706.62;107532;1251;111750;-65
2023/12/26 03:39:25;;;;;;;3.70;2.30;;;;;;;1.85;74.76;100702.70;107529;1251;107910;-65
2023/12/26 03:41:53;;;;;;;4.00;2.20;;;;;;;1.87;74.96;100710.57;107490;1255;108115;-66
2023/12/26 03:44:22;;;;;;;4.60;2.30;;;;;;;1.89;75.16;100712.79;107555;1256;97842;-66
2023/12/26 03:46:51;;;;;;;8.40;2.10;;;;;;;1.89;75.40;100715.96;107536;1252;97880;-66
2023/12/26 03:49:19;;;;;;;4.50;1.90;;;;;;;1.91;75.65;100712.15;107547;1251;110663;-68
2023/12/26 03:51:48;;;;;;;4.50;2.50;;;;;;;1.94;75.66;100717.98;107517;1251;108262;-68
2023/12/26 03:54:18;;;;;;;3.40;2.50;;;;;;;1.98;75.94;100717.77;107525;1251;107345;-68
2023/12/26 03:56:46;;;;;;;3.20;2.10;;;;;;;2.02;75.83;100720.42;107581;1254;97928;-68
2023/12/26 03:59:15;;;;;;;3.10;2.00;;;;;;;2.06;76.02;100724.30;107533;1254;97840;-66
2023/12/26 04:01:44;;;;;;;2.50;1.60;;;;;;;2.07;76.04;100722.42;107526;1251;111341;-65
2023/12/26 04:04:12;;;;;;;3.20;2.20;;;;;;;2.12;76.09;100726.09;107567;1251;106829;-63
2023/12/26 04:06:41;;;;;;;3.60;2.30;;;;;;;2.15;76.18;100730.48;107540;1251;109503;-64
2023/12/26 04:09:10;;;;;;;7.50;2.00;;;;;;;2.19;76.31;100733.66;107536;1251;97835;-64
2023/12/26 04:11:39;;;;;;;3.60;2.00;;;;;;;2.23;76.23;100736.48;107651;1251;97831;-64
2023/12/26 04:14:07;;;;;;;3.90;2.20;;;;;;;2.22;75.92;100742.35;107523;1254;111907;-65
2023/12/26 04:16:37;;;;;;;2.10;1.80;;;;;;;2.22;75.92;100742.17;107573;1254;108189;-68
2023/12/26 04:19:10;;;;;;;5.00;2.10;;;;;;;2.23;75.92;100742.46;107503;1254;108148;-66
2023/12/26 04:21:38;;;;;;;2.90;2.00;;;;;;;2.20;75.59;100738.91;107441;1254;97873;-67
2023/12/26 04:24:07;;;;;;;3.30;1.70;;;;;;;2.17;75.59;100738.67;107647;1251;97837;-68
2023/12/26 04:26:39;;;;;;;3.70;2.10;;;;;;;2.18;75.78;100741.98;107643;1256;110788;-64
2023/12/26 04:29:07;;;;;;;2.80;1.90;;;;;;;2.20;75.70;100739.98;107588;1251;107088;-66
2023/12/26 04:31:36;;;;;;;3.50;2.10;;;;;;;2.20;75.68;100740.65;107578;1251;107598;-66
2023/12/26 04:34:04;;;;;;;2.10;1.80;;;;;;;2.19;75.86;100741.79;107611;1257;97913;-65
2023/12/26 04:36:35;;;;;;;4.10;2.60;;;;;;;2.22;76.01;100746.05;107556;1251;97827;-65
2023/12/26 04:39:04;;;;;;;4.30;2.60;;;;;;;2.26;76.10;100747.79;107522;1254;110689;-65
2023/12/26 04:41:33;;;;;;;5.40;2.40;;;;;;;2.29;76.04;100742.84;107562;1254;106788;-65
2023/12/26 04:44:02;;;;;;;3.50;2.20;;;;;;;2.31;75.88;100743.44;107499;1254;108312;-64
2023/12/26 04:46:31;;;;;;;3.50;2.00;;;;;;;2.33;76.16;100748.10;107512;1254;97827;-68
2023/12/26 04:48:59;;;;;;;3.70;1.90;;;;;;;2.34;75.95;100750.16;107558;1255;97878;-67
2023/12/26 04:51:30;;;;;;;2.90;1.90;;;;;;;2.37;76.07;100750.75;107586;1254;112033;-66
2023/12/26 04:53:59;;;;;;;8.50;3.10;;;;;;;2.37;75.74;100753.06;107563;1254;107581;-67
2023/12/26 04:56:28;;;;;;;6.50;2.40;;;;;;;2.35;75.77;100749.79;107609;1254;108665;-68
2023/12/26 04:58:56;;;;;;;12.50;2.70;;;;;;;2.33;75.58;100754.66;107498;1254;97857;-67
2023/12/26 05:01:25;;;;;;;4.80;2.70;;;;;;;2.30;75.47;100761.55;107625;1255;97781;-69
2023/12/26 05:03:53;;;;;;;3.80;2.60;;;;;;;2.24;75.25;100765.39;107539;1256;111285;-67
2023/12/26 05:06:23;;;;;;;5.50;2.50;;;;;;;2.17;74.89;100768.61;107592;1254;108107;-68
2023/12/26 05:08:52;;;;;;;4.40;2.70;;;;;;;2.12;74.94;100766.58;107509;1255;107915;-69
2023/12/26 05:11:24;;;;;;;7.10;2.50;;;;;;;2.05;74.86;100773.67;107551;1254;97890;-68
2023/12/26 05:13:53;;;;;;;3.30;2.30;;;;;;;1.97;74.75;100780.11;107634;1254;97720;-67
2023/12/26 05:16:21;;;;;;;5.90;2.40;;;;;;;1.90;74.70;100785.25;107589;1254;110048;-68
2023/12/26 05:18:50;;;;;;;5.80;2.90;;;;;;;1.81;74.64;100784.80;107556;1254;107243;-68
2023/12/26 05:21:21;;;;;;;3.90;2.30;;;;;;;1.73;74.48;100783.27;107441;1257;106037;-67
2023/12/26 05:23:51;;;;;;;3.90;2.50;;;;;;;1.66;74.48;100788.75;107531;1253;97707;-67
2023/12/26 05:26:19;;;;;;;4.70;2.80;;;;;;;1.61;74.43;100781.27;107569;1258;98366;-68
2023/12/26 05:28:48;;;;;;;4.70;2.70;;;;;;;1.55;74.23;100777.30;107601;1254;111850;-70
2023/12/26 05:31:20;;;;;;;3.80;2.80;;;;;;;1.49;74.28;100782.73;107589;1256;106646;-69
2023/12/26 05:33:50;;;;;;;5.20;2.30;;;;;;;1.44;74.27;100782.80;107574;1251;108952;-68
2023/12/26 05:36:19;;;;;;;4.00;2.20;;;;;;;1.40;74.39;100786.73;107588;1257;96373;-69
2023/12/26 05:38:48;;;;;;;3.40;2.20;;;;;;;1.36;74.38;100799.27;107574;1251;97931;-68
2023/12/26 05:41:18;;;;;;;5.10;2.20;;;;;;;1.33;74.78;100797.48;107564;1254;111881;-67
2023/12/26 05:43:47;;;;;;;3.50;2.60;;;;;;;1.30;74.71;100793.05;107629;1254;107372;-69
2023/12/26 05:46:17;;;;;;;8.00;2.90;;;;;;;1.27;74.89;100799.54;107530;1254;107446;-67
2023/12/26 05:48:46;;;;;;;3.60;2.20;;;;;;;1.26;75.02;100799.08;107621;1254;97835;-68
2023/12/26 05:51:15;;;;;;;2.80;2.30;;;;;;;1.25;75.03;100801.38;107507;1259;97843;-68
2023/12/26 05:53:43;;;;;;;2.40;1.90;;;;;;;1.26;75.00;100804.90;107502;1257;111611;-67
2023/12/26 05:56:12;;;;;;;4.50;2.30;;;;;;;1.27;75.04;100809.80;107625;1256;107358;-68
2023/12/26 05:58:41;;;;;;;3.50;2.30;;;;;;;1.31;75.45;100809.79;107587;1255;107748;-69
2023/12/26 06:01:10;;;;;;;2.60;2.20;;;;;;;1.33;75.53;100811.29;107618;1257;97858;-67
2023/12/26 06:03:39;;;;;;;4.80;2.60;;;;;;;1.34;75.53;100809.98;107652;1251;97835;-68
2023/12/26 06:06:11;;;;;;;2.60;2.20;;;;;;;1.38;76.09;100803.97;107551;1251;111474;-64
2023/12/26 06:08:41;;;;;;;6.30;2.50;;;;;;;1.42;76.11;100807.64;107683;1257;108137;-66
2023/12/26 06:11:10;;;;;;;5.70;2.70;;;;;;;1.49;76.37;100808.90;107608;1252;106892;-65
2023/12/26 06:13:39;;;;;;;2.90;2.00;;;;;;;1.56;76.46;100811.04;107527;1251;97947;-66
2023/12/26 06:16:09;;;;;;;5.00;2.80;;;;;;;1.64;76.47;100814.84;107533;1255;98017;-66
2023/12/26 06:18:38;;;;;;;3.60;2.70;;;;;;;1.73;76.90;100819.19;107582;1251;112348;-66
2023/12/26 06:21:07;;;;;;;6.10;2.20;;;;;;;1.81;76.72;100818.26;107572;1251;107585;-66
2023/12/26 06:23:35;;;;;;;7.30;3.30;;;;;;;1.86;76.56;100818.52;107555;1255;108260;-68
2023/12/26 06:26:04;;;;;;;4.90;2.80;;;;;;;1.90;76.67;100820.95;107441;1251;97844;-70
2023/12/26 06:28:36;;;;;;;7.80;2.30;;;;;;;1.94;76.72;100820.80;107491;1257;98388;-70
2023/12/26 06:31:11;;;;;;;5.00;2.90;;;;;;;1.97;76.63;100820.59;107494;1251;110249;-69
2023/12/26 06:33:40;;;;;;;3.70;2.20;;;;;;;2.01;76.43;100826.21;107373;1251;107956;-69
2023/12/26 06:36:08;;;;;;;10.50;2.80;;;;;;;2.02;76.53;100829.70;107579;1256;106728;-69
2023/12/26 06:38:37;;;;;;;4.30;2.50;;;;;;;2.10;76.50;100832.72;107539;1253;97918;-70
2023/12/26 06:41:06;;;;;;;4.50;2.80;;;;;;;2.20;76.85;100826.69;107572;1256;98362;-68
2023/12/26 06:43:34;;;;;;;2.70;2.10;;;;;;;2.29;76.63;100835.42;107347;1260;111810;-70
2023/12/26 06:46:04;;;;;;;4.20;2.40;;;;;;;2.37;76.61;100844.19;107612;1257;106660;-69
2023/12/26 06:48:32;;;;;;;3.30;2.30;;;;;;;2.43;76.49;100847.76;107508;1254;107717;-70
2023/12/26 06:51:04;;;;;;;5.70;2.70;;;;;;;2.50;76.58;100852.91;107646;1254;97818;-71
2023/12/26 06:53:33;;;;;;;7.40;3.10;;;;;;;2.56;76.41;100843.21;107641;1254;97841;-70
2023/12/26 06:56:04;;;;;;;6.50;2.70;;;;;;;2.57;76.06;100843.46;107612;1257;111202;-70
2023/12/26 06:58:32;;;;;;;11.20;3.40;;;;;;;2.59;75.97;100844.80;107605;1251;107052;-68
2023/12/26 07:01:02;;;;;;;15.10;5.80;;;;;;;2.62;75.88;100851.02;107549;1251;107926;-70
2023/12/26 07:03:31;;;;;;;19.90;8.90;;;;;;;2.63;75.69;100852.19;107529;1258;98044;-69
2023/12/26 07:05:59;;;;;;;29.00;11.70;;;;;;;2.62;75.57;100851.16;107677;1254;97745;-69
2023/12/26 07:08:28;;;;;;;41.40;13.70;;;;;;;2.61;75.81;100856.02;107588;1254;111833;-69
2023/12/26 07:10:56;;;;;;;31.00;17.80;;;;;;;2.64;76.29;100856.54;107545;1254;108461;-69
2023/12/26 07:13:25;;;;;;;33.80;15.60;;;;;;;2.70;76.26;100860.68;107580;1254;107008;-67
2023/12/26 07:15:53;;;;;;;30.80;14.40;;;;;;;2.77;76.60;100859.74;107590;1256;98022;-70
2023/12/26 07:18:21;;;;;;;35.00;12.60;;;;;;;2.86;76.59;100858.94;107494;1254;98392;-69
2023/12/26 07:20:50;;;;;;;28.30;12.70;;;;;;;2.93;76.50;100858.35;107646;1254;111519;-68
2023/12/26 07:23:19;;;;;;;29.60;15.40;;;;;;;3.01;76.69;100856.51;107574;1255;108804;-72
2023/12/26 07:25:47;;;;;;;32.20;15.90;;;;;;;3.10;76.83;100860.61;107515;1254;107744;-69
2023/12/26 07:28:17;;;;;;;32.20;15.60;;;;;;;3.21;77.08;100862.13;107498;1254;97791;-70
2023/12/26 07:30:45;;;;;;;30.40;14.70;;;;;;;3.31;77.00;100867.39;107591;1257;98367;-68
2023/12/26 07:33:14;;;;;;;46.70;19.40;;;;;;;3.42;76.85;100864.33;107580;1255;111385;-70
2023/12/26 07:35:43;;;;;;;26.20;14.50;;;;;;;3.55;77.05;100863.38;107628;1252;107893;-69
2023/12/26 07:38:12;;;;;;;28.20;13.60;;;;;;;3.71;77.23;100870.27;107463;1253;107947;-71
2023/12/26 07:40:40;;;;;;;25.40;12.30;;;;;;;3.87;77.20;100868.80;107487;1254;97977;-70
2023/12/26 07:43:10;;;;;;;49.50;26.40;;;;;;;4.05;77.40;100870.95;107629;1256;98524;-69
2023/12/26 07:45:38;;;;;;;26.50;14.60;;;;;;;4.26;77.60;100875.03;107595;1251;112052;-70
2023/12/26 07:48:07;;;;;;;27.00;14.90;;;;;;;4.49;77.89;100871.18;107535;1254;108445;-71
2023/12/26 07:50:36;;;;;;;39.30;18.10;;;;;;;4.71;78.30;100865.89;107588;1254;108256;-69
2023/12/26 07:53:05;;;;;;;32.00;17.10;;;;;;;4.95;78.52;100864.04;107539;1254;97828;-70
2023/12/26 07:55:33;;;;;;;32.00;14.40;;;;;;;5.18;78.47;100866.14;107518;1251;97706;-70
2023/12/26 07:58:01;;;;;;;26.40;14.20;;;;;;;5.38;78.35;100863.45;107516;1251;110700;-70
2023/12/26 08:00:30;;;;;;;25.70;13.40;;;;;;;5.57;78.48;100868.64;107504;1254;108585;-69
2023/12/26 08:02:58;;;;;;;21.70;13.00;;;;;;;5.73;78.79;100875.72;107579;1251;108433;-71
2023/12/26 08:05:28;;;;;;;20.50;11.90;;;;;;;5.88;78.85;100871.94;107461;1254;97838;-71
2023/12/26 08:07:56;;;;;;;22.70;12.30;;;;;;;6.02;78.79;100865.49;107537;1251;97847;-69
2023/12/26 08:10:25;;;;;;;20.10;11.40;;;;;;;6.17;78.80;100868.86;107564;1251;111525;-69
2023/12/26 08:12:54;;;;;;;15.40;10.00;;;;;;;6.36;79.01;100869.55;107584;1251;108083;-70
2023/12/26 08:15:23;;;;;;;17.90;10.00;;;;;;;6.51;78.64;100870.46;107506;1254;108527;-69
2023/12/26 08:17:51;;;;;;;24.00;11.60;;;;;;;6.69;78.50;100872.27;107451;1252;97934;-69
2023/12/26 08:20:20;;;;;;;16.70;9.90;;;;;;;6.95;78.57;100870.06;107492;1254;97784;-70
2023/12/26 08:22:49;;;;;;;17.40;9.90;;;;;;;7.28;78.19;100869.48;107425;1254;111522;-70
2023/12/26 08:25:17;;;;;;;19.30;9.20;;;;;;;7.59;77.94;100869.19;107631;1254;108354;-70
2023/12/26 08:27:47;;;;;;;18.60;8.70;;;;;;;7.86;77.71;100873.78;107547;1251;108457;-68
2023/12/26 08:30:16;;;;;;;16.80;8.60;;;;;;;8.13;77.26;100870.70;107589;1254;97826;-69
2023/12/26 08:32:45;;;;;;;14.20;8.00;;;;;;;8.47;77.00;100872.57;107602;1254;98492;-69
2023/12/26 08:35:13;;;;;;;15.70;8.90;;;;;;;8.80;76.87;100867.15;107570;1254;110755;-69
2023/12/26 08:37:42;;;;;;;16.10;9.00;;;;;;;9.12;76.77;100866.36;107580;1253;107656;-70
2023/12/26 08:40:11;;;;;;;15.30;8.10;;;;;;;9.35;76.59;100860.04;107615;1251;107846;-70
2023/12/26 08:42:39;;;;;;;15.40;8.70;;;;;;;9.49;76.19;100856.36;107523;1251;97892;-68
2023/12/26 08:45:09;;;;;;;37.00;14.00;;;;;;;9.54;75.93;100859.33;106752;1251;1077293;-70
2023/12/26 08:47:37;;;;;;;42.20;16.20;;;;;;;9.60;75.52;100850.45;107477;1251;112238;-69
2023/12/26 08:50:06;;;;;;;39.50;17.30;;;;;;;9.64;75.52;100846.52;107514;1251;108298;-68
2023/12/26 08:52:35;;;;;;;18.70;8.90;;;;;;;9.68;75.11;100846.38;107469;1251;108222;-69
2023/12/26 08:55:04;;;;;;;16.60;7.20;;;;;;;9.81;74.84;100844.95;107536;1254;97906;-69
2023/12/26 08:57:32;;;;;;;23.50;11.10;;;;;;;9.98;74.71;100839.80;107485;1253;97826;-68
2023/12/26 09:00:01;;;;;;;27.60;10.80;;;;;;;10.24;74.16;100842.59;107629;1251;112181;-66
2023/12/26 09:02:29;;;;;;;22.10;11.60;;;;;;;10.43;73.76;100845.41;107626;1254;106672;-66
2023/12/26 09:04:58;;;;;;;19.00;10.70;;;;;;;10.62;73.49;100838.27;107613;1251;106896;-65
2023/12/26 09:07:29;;;;;;;40.20;16.30;;;;;;;10.84;73.12;100840.95;107586;1251;97825;-66
2023/12/26 09:09:57;;;;;;;30.20;15.40;;;;;;;11.12;72.36;100846.59;107607;1254;97745;-69
2023/12/26 09:12:26;;;;;;;20.90;12.10;;;;;;;11.33;71.39;100841.50;107607;1254;110494;-69
2023/12/26 09:14:54;;;;;;;26.20;13.70;;;;;;;11.57;70.92;100838.04;107651;1254;107908;-69
2023/12/26 09:17:23;;;;;;;15.50;7.60;;;;;;;11.80;70.37;100836.50;107580;1256;107693;-69
2023/12/26 09:19:51;;;;;;;11.10;6.50;;;;;;;12.09;69.99;100833.63;107621;1251;97829;-69
2023/12/26 09:22:20;;;;;;;10.20;5.80;;;;;;;12.39;68.14;100825.98;107640;1251;98370;-69
2023/12/26 09:24:48;;;;;;;23.50;9.80;;;;;;;12.65;67.75;100817.42;107618;1251;111480;-69
2023/12/26 09:27:17;;;;;;;6.80;4.10;;;;;;;12.86;66.13;100815.36;107584;1251;107980;-69
2023/12/26 09:29:45;;;;;;;10.30;5.30;;;;;;;13.01;66.03;100805.47;107607;1251;107215;-70
2023/12/26 09:32:14;;;;;;;9.60;4.80;;;;;;;13.20;66.13;100803.95;107467;1252;97816;-69
2023/12/26 09:34:43;;;;;;;5.80;3.80;;;;;;;13.36;65.02;100800.58;107595;1251;97903;-69
2023/12/26 09:37:11;;;;;;;7.00;3.80;;;;;;;13.43;62.59;100799.72;107630;1257;110697;-70
2023/12/26 09:39:40;;;;;;;7.70;4.40;;;;;;;13.50;61.36;100796.33;107584;1251;108219;-68
2023/12/26 09:42:11;;;;;;;6.10;3.70;;;;;;;13.49;61.46;100797.28;107600;1251;108294;-68
2023/12/26 09:44:40;;;;;;;8.00;4.40;;;;;;;13.44;60.67;100790.96;107581;1251;97916;-70
2023/12/26 09:47:10;;;;;;;4.90;3.40;;;;;;;13.41;61.35;100787.27;107642;1251;97817;-69
2023/12/26 09:49:38;;;;;;;5.90;3.20;;;;;;;13.41;61.22;100786.54;107628;1251;111299;-70
2023/12/26 09:52:08;;;;;;;14.00;3.70;;;;;;;13.38;60.02;100775.83;107612;1257;107439;-69
2023/12/26 09:54:41;;;;;;;8.60;3.70;;;;;;;13.31;59.52;100763.62;107610;1256;107224;-69
2023/12/26 09:57:15;;;;;;;6.80;3.40;;;;;;;13.25;59.76;100757.21;107601;1257;97914;-73
2023/12/26 09:59:43;;;;;;;5.90;3.30;;;;;;;13.24;59.25;100750.05;107675;1251;97711;-70
2023/12/26 10:02:15;;;;;;;5.40;3.40;;;;;;;13.21;59.73;100746.03;107521;1251;111769;-68
2023/12/26 10:04:45;;;;;;;7.90;3.90;;;;;;;13.21;59.15;100742.05;107527;1250;107711;-70
2023/12/26 10:07:14;;;;;;;8.80;3.50;;;;;;;13.20;59.53;100743.29;107445;1251;106560;-69
2023/12/26 10:09:43;;;;;;;6.20;3.30;;;;;;;13.19;59.28;100745.31;107572;1251;97852;-70
2023/12/26 10:12:11;;;;;;;7.10;3.30;;;;;;;13.21;59.68;100742.31;107650;1251;97993;-68
2023/12/26 10:14:40;;;;;;;4.80;3.10;;;;;;;13.25;59.47;100740.56;107640;1257;111317;-69
2023/12/26 10:17:10;;;;;;;9.80;3.50;;;;;;;13.30;58.92;100736.50;107612;1251;107476;-69
2023/12/26 10:19:38;;;;;;;8.00;3.50;;;;;;;13.33;58.82;100731.29;107602;1255;107642;-71
2023/12/26 10:22:07;;;;;;;4.10;2.90;;;;;;;13.39;57.82;100730.88;107548;1251;97816;-69
2023/12/26 10:24:35;;;;;;;5.50;3.00;;;;;;;13.42;58.01;100736.40;107643;1251;98366;-70
2023/12/26 10:27:04;;;;;;;5.90;3.20;;;;;;;13.49;58.01;100732.77;107670;1254;110387;-69
2023/12/26 10:29:33;;;;;;;5.40;2.50;;;;;;;13.57;58.15;100734.85;107701;1252;107132;-69
2023/12/26 10:32:02;;;;;;;8.60;3.30;;;;;;;13.63;58.25;100731.77;107622;1251;108606;-70
2023/12/26 10:34:30;;;;;;;4.30;3.10;;;;;;;13.71;58.41;100729.73;107607;1251;98354;-71
2023/12/26 10:36:59;;;;;;;5.30;3.10;;;;;;;13.76;57.94;100726.21;107475;1251;97865;-68
2023/12/26 10:39:28;;;;;;;5.80;3.10;;;;;;;13.87;57.02;100728.91;107616;1252;110882;-71
2023/12/26 10:41:58;;;;;;;7.60;2.80;;;;;;;13.94;56.82;100722.78;107579;1254;107872;-69
2023/12/26 10:44:52;;;;;;;6.30;2.60;;;;;;;14.07;55.81;100714.64;107685;1251;107908;-69
2023/12/26 10:47:21;;;;;;;;;;;;;;;14.18;55.49;100712.05;107458;1251;97829;-70
2023/12/26 10:49:55;;;;;;;6.70;2.70;;;;;;;14.25;55.56;100712.90;107624;1251;97837;-70
2023/12/26 10:52:28;;;;;;;7.80;3.20;;;;;;;14.36;55.20;100711.00;107507;1251;111724;-68
2023/12/26 10:55:00;;;;;;;7.30;2.60;;;;;;;14.50;55.07;100703.51;107502;1251;106805;-68
2023/12/26 10:57:35;;;;;;;4.20;2.50;;;;;;;14.63;54.98;100695.25;107575;1251;107027;-69
2023/12/26 11:00:47;;;;;;;4.20;2.60;;;;;;;14.77;54.44;100688.15;107598;1251;97844;-68
2023/12/26 13:51:26;;;;;;;6.20;2.90;;;;;;;14.13;49.48;100593.15;107451;1251;97805;-69
2023/12/26 13:53:55;;;;;;;11.80;2.90;;;;;;;13.98;49.72;100584.10;107530;1251;112368;-69
2023/12/26 13:56:24;;;;;;;5.90;2.20;;;;;;;13.82;50.13;100578.90;107580;1251;107655;-68
2023/12/26 13:58:52;;;;;;;5.20;2.40;;;;;;;13.76;50.85;100581.58;107525;1251;106898;-69
2023/12/26 14:01:58;;;;;;;21.30;6.40;;;;;;;13.73;51.04;100585.48;107508;1251;97841;-69
2023/12/26 14:05:05;;;;;;;40.60;8.30;;;;;;;13.63;50.99;100591.52;107504;1251;97735;-69
2023/12/26 14:07:33;;;;;;;16.90;4.70;;;;;;;13.47;51.27;100596.76;107493;1251;112162;-68
2023/12/26 14:10:40;;;;;;;7.80;3.90;;;;;;;13.29;51.36;100596.27;107453;1251;107354;-69
2023/12/26 14:13:09;;;;;;;11.20;3.10;;;;;;;13.12;51.78;100603.55;107480;1251;108024;-70